Lincoln, NM (88338)

12:08 AM MDT on October 25, 2014 (GMT -0600)
Sierra Blanca Regional | Change Station
CLOSE
Current Station
Airport
Location: Ruidoso,
Elevation: 6811 ft
Nearby Weather Stations

Elev 6811 ft 33.46 °N, 105.53 °W | Updated 13 minutes ago

Clear
Clear
50 °F
Feels Like 50 °F
N
9
Wind Variable Wind from SW

Today
High -- | Low -- °F
--% Chance of Precip.
Yesterday
High -- | Low -- °F
Precip. -- in
7:14 AM 6:16 PM
New Moon, 2% visible
Pressure 30.39 in
Visibility 10.0 miles
Clouds Clear
Dew Point 39 °F
Humidity 66%
Rainfall 0.00 in
Snow Depth Not available.
UV 0 out of 12
Pollen 5.30 out of 12
Air Quality Not available.
Flu Activity Sporadic
METAR KSRR 250555Z AUTO 23008KT 10SM CLR 10/04 A3039 RMK AO2

More Conditions Fewer Conditions

Pressure 30.39 in
Visibility 10.0 miles
Clouds Clear
Dew Point 39 °F
Humidity 66%
Rainfall 0.00 in
Snow Depth Not available.
UV 0 out of 12
Pollen 5.30 out of 12
Air Quality Not available.
Flu Activity Sporadic
METAR KSRR 250555Z AUTO 23008KT 10SM CLR 10/04 A3039 RMK AO2

More Conditions Fewer Conditions

10-Day Weather Forecast

Almanac

Astronomy

Oct. 25, 2014 Rise Set
Actual Time 7:14 AM MDT 6:16 PM MDT
Civil Twilight 6:49 AM MDT 6:42 PM MDT
Nautical Twilight 6:20 AM MDT 7:11 PM MDT
Astronomical Twilight 5:51 AM MDT 7:40 PM MDT
Moon 8:52 AM MDT 7:46 PM MDT
Length of Visible Light 11h 52m
Length of Day
11h 02m
Tomorrow will be 1m 53s shorter.
New Moon, 2% of the Moon is Illuminated
Today
New Moon
Oct 30
First Quarter
Nov 6
Full
Nov 14
Last Quarter
Nov 22
New

Today's Extremes

State Highs State Lows

Community

WunderPhotos

Upload Photos

1,764,785 photos uploaded!

Nearby

Snow Depth

Station Depth Elevation
Sierra Blanca 0 in 10280 ft
McKnight Cabin 0 in 9240 ft
Wesner Springs 0 in 11120 ft
Santa Fe 1 in 11445 ft
Elk Cabin 0 in 8210 ft

Earthquake Activity

City Distance Mag. Time & Date
No recent earthquake activity has been reported nearby.
Minimum magnitude displayed is 2.5.

Coastal Water Temperatures

Place Temperature
No Stations Reporting

Nearby Weather Stations